sensor_id;sensor_type;location;lat;lon;timestamp;pressure;altitude;pressure_sealevel;temperature;humidity
31873;BME280;22407;42.820;23.374;2024-02-23T00:00:28;95481.91;;;4.41;86.85
31873;BME280;22407;42.820;23.374;2024-02-23T00:02:54;95480.78;;;4.57;87.05
31873;BME280;22407;42.820;23.374;2024-02-23T00:05:21;95484.63;;;4.99;84.52
31873;BME280;22407;42.820;23.374;2024-02-23T00:07:47;95482.00;;;5.37;82.74
31873;BME280;22407;42.820;23.374;2024-02-23T00:10:12;95482.28;;;5.36;81.90
31873;BME280;22407;42.820;23.374;2024-02-23T00:12:38;95484.59;;;5.47;81.56
31873;BME280;22407;42.820;23.374;2024-02-23T00:15:04;95475.63;;;5.67;81.59
31873;BME280;22407;42.820;23.374;2024-02-23T00:17:29;95477.78;;;5.65;80.52
31873;BME280;22407;42.820;23.374;2024-02-23T00:19:55;95475.97;;;5.94;80.43
31873;BME280;22407;42.820;23.374;2024-02-23T00:22:20;95474.31;;;5.97;79.85
31873;BME280;22407;42.820;23.374;2024-02-23T00:24:46;95476.72;;;5.99;79.58
31873;BME280;22407;42.820;23.374;2024-02-23T00:27:11;95464.72;;;6.15;79.88
31873;BME280;22407;42.820;23.374;2024-02-23T00:29:37;95460.00;;;6.30;78.42
31873;BME280;22407;42.820;23.374;2024-02-23T00:32:03;95464.72;;;6.43;77.51
31873;BME280;22407;42.820;23.374;2024-02-23T00:34:29;95468.16;;;6.49;77.51
31873;BME280;22407;42.820;23.374;2024-02-23T00:36:57;95463.34;;;6.46;77.97
31873;BME280;22407;42.820;23.374;2024-02-23T00:39:22;95457.19;;;6.45;77.56
31873;BME280;22407;42.820;23.374;2024-02-23T00:41:48;95453.75;;;6.40;77.92
31873;BME280;22407;42.820;23.374;2024-02-23T00:44:14;95456.44;;;6.11;79.64
31873;BME280;22407;42.820;23.374;2024-02-23T00:46:39;95451.16;;;6.01;80.10
31873;BME280;22407;42.820;23.374;2024-02-23T00:49:06;95457.22;;;5.89;80.69
31873;BME280;22407;42.820;23.374;2024-02-23T00:51:31;95450.09;;;6.02;81.15
31873;BME280;22407;42.820;23.374;2024-02-23T00:53:57;95452.22;;;6.05;81.18
31873;BME280;22407;42.820;23.374;2024-02-23T00:56:22;95447.38;;;6.07;80.66
31873;BME280;22407;42.820;23.374;2024-02-23T00:58:48;95439.00;;;6.09;81.02
31873;BME280;22407;42.820;23.374;2024-02-23T01:01:14;95437.94;;;6.10;80.39
31873;BME280;22407;42.820;23.374;2024-02-23T01:03:39;95441.47;;;6.05;80.77
31873;BME280;22407;42.820;23.374;2024-02-23T01:06:05;95434.25;;;6.01;81.13
31873;BME280;22407;42.820;23.374;2024-02-23T01:08:30;95439.00;;;6.09;80.78
31873;BME280;22407;42.820;23.374;2024-02-23T01:10:57;95444.41;;;6.32;79.58
31873;BME280;22407;42.820;23.374;2024-02-23T01:13:22;95430.53;;;6.49;78.11
31873;BME280;22407;42.820;23.374;2024-02-23T01:15:48;95427.66;;;6.40;79.03
31873;BME280;22407;42.820;23.374;2024-02-23T01:18:13;95426.22;;;6.24;79.75
31873;BME280;22407;42.820;23.374;2024-02-23T01:20:39;95426.38;;;6.09;80.42
31873;BME280;22407;42.820;23.374;2024-02-23T01:23:05;95420.31;;;6.22;79.75
31873;BME280;22407;42.820;23.374;2024-02-23T01:25:30;95424.44;;;6.15;80.43
31873;BME280;22407;42.820;23.374;2024-02-23T01:27:55;95417.94;;;6.21;80.43
31873;BME280;22407;42.820;23.374;2024-02-23T01:30:21;95417.19;;;6.15;80.88
31873;BME280;22407;42.820;23.374;2024-02-23T01:32:46;95417.63;;;6.22;80.08
31873;BME280;22407;42.820;23.374;2024-02-23T01:35:12;95416.03;;;6.21;80.77
31873;BME280;22407;42.820;23.374;2024-02-23T01:37:37;95424.06;;;6.26;80.22
31873;BME280;22407;42.820;23.374;2024-02-23T01:40:03;95417.59;;;6.27;79.58
31873;BME280;22407;42.820;23.374;2024-02-23T01:42:29;95415.81;;;5.90;80.94
31873;BME280;22407;42.820;23.374;2024-02-23T01:44:55;95406.44;;;5.54;82.34
31873;BME280;22407;42.820;23.374;2024-02-23T01:47:27;95413.44;;;5.50;83.19
31873;BME280;22407;42.820;23.374;2024-02-23T01:49:54;95400.44;;;5.67;82.02
31873;BME280;22407;42.820;23.374;2024-02-23T01:52:21;95404.72;;;5.68;81.48
31873;BME280;22407;42.820;23.374;2024-02-23T01:54:46;95409.06;;;5.30;82.60
31873;BME280;22407;42.820;23.374;2024-02-23T01:57:12;95408.06;;;5.21;83.24
31873;BME280;22407;42.820;23.374;2024-02-23T01:59:39;95399.94;;;5.31;83.30
31873;BME280;22407;42.820;23.374;2024-02-23T02:02:05;95403.84;;;5.44;82.41
31873;BME280;22407;42.820;23.374;2024-02-23T02:04:31;95413.19;;;5.13;84.90
31873;BME280;22407;42.820;23.374;2024-02-23T02:06:58;95407.19;;;4.88;87.12
31873;BME280;22407;42.820;23.374;2024-02-23T02:09:25;95399.91;;;4.93;86.12
31873;BME280;22407;42.820;23.374;2024-02-23T02:11:51;95404.91;;;4.66;87.96
31873;BME280;22407;42.820;23.374;2024-02-23T02:14:17;95405.03;;;4.85;86.60
31873;BME280;22407;42.820;23.374;2024-02-23T02:16:43;95387.88;;;4.86;86.54
31873;BME280;22407;42.820;23.374;2024-02-23T02:19:10;95393.13;;;4.62;87.79
31873;BME280;22407;42.820;23.374;2024-02-23T02:21:36;95391.69;;;4.75;86.65
31873;BME280;22407;42.820;23.374;2024-02-23T02:24:02;95393.59;;;4.74;86.03
31873;BME280;22407;42.820;23.374;2024-02-23T02:26:28;95397.44;;;4.58;87.27
31873;BME280;22407;42.820;23.374;2024-02-23T02:28:54;95394.59;;;4.30;88.27
31873;BME280;22407;42.820;23.374;2024-02-23T02:31:19;95401.56;;;4.31;88.49
31873;BME280;22407;42.820;23.374;2024-02-23T02:33:45;95395.22;;;4.12;90.03
31873;BME280;22407;42.820;23.374;2024-02-23T02:36:10;95388.75;;;4.18;90.76
31873;BME280;22407;42.820;23.374;2024-02-23T02:38:37;95395.19;;;4.17;91.09
31873;BME280;22407;42.820;23.374;2024-02-23T02:41:02;95391.13;;;4.24;92.03
31873;BME280;22407;42.820;23.374;2024-02-23T02:43:28;95385.41;;;4.46;89.73
31873;BME280;22407;42.820;23.374;2024-02-23T02:45:53;95386.19;;;4.51;89.35
31873;BME280;22407;42.820;23.374;2024-02-23T02:48:19;95394.81;;;4.43;89.76
31873;BME280;22407;42.820;23.374;2024-02-23T02:50:44;95388.38;;;4.39;88.98
31873;BME280;22407;42.820;23.374;2024-02-23T02:53:10;95400.41;;;4.47;89.86
31873;BME280;22407;42.820;23.374;2024-02-23T02:55:39;95400.13;;;4.58;88.41
31873;BME280;22407;42.820;23.374;2024-02-23T02:58:04;95401.47;;;4.51;88.93
31873;BME280;22407;42.820;23.374;2024-02-23T03:00:30;95399.66;;;4.36;90.14
31873;BME280;22407;42.820;23.374;2024-02-23T03:02:56;95386.75;;;4.48;88.90
31873;BME280;22407;42.820;23.374;2024-02-23T03:05:22;95399.34;;;4.53;88.35
31873;BME280;22407;42.820;23.374;2024-02-23T03:07:48;95405.53;;;4.43;89.65
31873;BME280;22407;42.820;23.374;2024-02-23T03:10:13;95407.03;;;4.64;89.29
31873;BME280;22407;42.820;23.374;2024-02-23T03:12:39;95401.72;;;4.54;88.36
31873;BME280;22407;42.820;23.374;2024-02-23T03:15:05;95403.38;;;4.40;88.89
31873;BME280;22407;42.820;23.374;2024-02-23T03:17:33;95407.13;;;4.39;90.00
31873;BME280;22407;42.820;23.374;2024-02-23T03:19:58;95401.00;;;4.44;89.85
31873;BME280;22407;42.820;23.374;2024-02-23T03:22:24;95406.38;;;4.29;90.62
31873;BME280;22407;42.820;23.374;2024-02-23T03:24:50;95406.06;;;4.40;90.31
31873;BME280;22407;42.820;23.374;2024-02-23T03:27:15;95401.28;;;4.37;90.63
31873;BME280;22407;42.820;23.374;2024-02-23T03:29:41;95402.19;;;4.71;89.66
31873;BME280;22407;42.820;23.374;2024-02-23T03:32:07;95388.81;;;4.61;88.55
31873;BME280;22407;42.820;23.374;2024-02-23T03:34:32;95403.06;;;4.57;89.53
31873;BME280;22407;42.820;23.374;2024-02-23T03:36:58;95402.88;;;4.38;90.87
31873;BME280;22407;42.820;23.374;2024-02-23T03:39:24;95413.47;;;4.63;88.50
31873;BME280;22407;42.820;23.374;2024-02-23T03:41:50;95408.16;;;4.58;89.83
31873;BME280;22407;42.820;23.374;2024-02-23T03:44:15;95400.06;;;4.63;89.29
31873;BME280;22407;42.820;23.374;2024-02-23T03:46:41;95409.50;;;4.56;89.56
31873;BME280;22407;42.820;23.374;2024-02-23T03:49:07;95409.19;;;4.62;89.57
31873;BME280;22407;42.820;23.374;2024-02-23T03:51:32;95404.75;;;4.43;89.65
31873;BME280;22407;42.820;23.374;2024-02-23T03:54:00;95407.69;;;4.41;89.14
31873;BME280;22407;42.820;23.374;2024-02-23T03:56:25;95409.84;;;4.34;89.73
31873;BME280;22407;42.820;23.374;2024-02-23T03:58:51;95405.03;;;4.31;89.56
31873;BME280;22407;42.820;23.374;2024-02-23T04:01:16;95404.59;;;4.05;91.96
31873;BME280;22407;42.820;23.374;2024-02-23T04:03:42;95408.38;;;3.99;92.74
31873;BME280;22407;42.820;23.374;2024-02-23T04:06:07;95415.63;;;3.93;92.99
31873;BME280;22407;42.820;23.374;2024-02-23T04:08:33;95416.94;;;3.91;93.07
31873;BME280;22407;42.820;23.374;2024-02-23T04:10:58;95408.63;;;4.02;92.51
31873;BME280;22407;42.820;23.374;2024-02-23T04:13:24;95410.75;;;3.95;92.39
31873;BME280;22407;42.820;23.374;2024-02-23T04:15:49;95408.66;;;3.82;93.78
31873;BME280;22407;42.820;23.374;2024-02-23T04:18:15;95410.00;;;3.85;94.41
31873;BME280;22407;42.820;23.374;2024-02-23T04:20:41;95416.41;;;3.94;93.74
31873;BME280;22407;42.820;23.374;2024-02-23T04:23:06;95419.09;;;3.99;94.12
31873;BME280;22407;42.820;23.374;2024-02-23T04:25:32;95417.97;;;4.10;92.77
31873;BME280;22407;42.820;23.374;2024-02-23T04:27:58;95407.56;;;4.03;93.17
31873;BME280;22407;42.820;23.374;2024-02-23T04:30:23;95413.16;;;4.07;92.64
31873;BME280;22407;42.820;23.374;2024-02-23T04:32:49;95411.75;;;4.34;91.94
31873;BME280;22407;42.820;23.374;2024-02-23T04:35:14;95411.53;;;4.16;91.49
31873;BME280;22407;42.820;23.374;2024-02-23T04:37:43;95403.44;;;4.30;90.91
31873;BME280;22407;42.820;23.374;2024-02-23T04:40:10;95406.16;;;4.16;92.36
31873;BME280;22407;42.820;23.374;2024-02-23T04:42:36;95416.81;;;4.30;90.94
31873;BME280;22407;42.820;23.374;2024-02-23T04:45:02;95410.47;;;4.12;91.43
31873;BME280;22407;42.820;23.374;2024-02-23T04:47:27;95409.41;;;4.08;92.34
31873;BME280;22407;42.820;23.374;2024-02-23T04:49:53;95409.94;;;4.05;92.59
31873;BME280;22407;42.820;23.374;2024-02-23T04:52:18;95415.84;;;4.07;92.11
31873;BME280;22407;42.820;23.374;2024-02-23T04:54:44;95422.25;;;4.01;91.60
31873;BME280;22407;42.820;23.374;2024-02-23T04:57:09;95430.84;;;4.03;92.15
31873;BME280;22407;42.820;23.374;2024-02-23T04:59:35;95434.63;;;3.87;92.49
31873;BME280;22407;42.820;23.374;2024-02-23T05:02:00;95427.88;;;4.14;92.52
31873;BME280;22407;42.820;23.374;2024-02-23T05:04:26;95423.28;;;4.20;91.38
31873;BME280;22407;42.820;23.374;2024-02-23T05:06:52;95430.59;;;4.04;92.30
31873;BME280;22407;42.820;23.374;2024-02-23T05:09:20;95421.41;;;4.15;90.90
31873;BME280;22407;42.820;23.374;2024-02-23T05:11:46;95422.81;;;3.93;91.93
31873;BME280;22407;42.820;23.374;2024-02-23T05:14:12;95430.88;;;3.83;92.37
31873;BME280;22407;42.820;23.374;2024-02-23T05:16:38;95435.97;;;3.59;93.58
31873;BME280;22407;42.820;23.374;2024-02-23T05:19:03;95437.88;;;3.49;94.37
31873;BME280;22407;42.820;23.374;2024-02-23T05:21:29;95441.06;;;3.51;94.18
31873;BME280;22407;42.820;23.374;2024-02-23T05:23:55;95445.88;;;3.34;94.80
31873;BME280;22407;42.820;23.374;2024-02-23T05:26:20;95437.59;;;3.45;95.07
31873;BME280;22407;42.820;23.374;2024-02-23T05:28:46;95442.41;;;3.68;93.43
31873;BME280;22407;42.820;23.374;2024-02-23T05:31:11;95437.03;;;3.83;93.04
31873;BME280;22407;42.820;23.374;2024-02-23T05:33:37;95440.97;;;4.25;93.73
31873;BME280;22407;42.820;23.374;2024-02-23T05:36:04;95436.38;;;4.89;89.59
31873;BME280;22407;42.820;23.374;2024-02-23T05:38:30;95440.97;;;5.32;87.03
31873;BME280;22407;42.820;23.374;2024-02-23T05:40:56;95440.06;;;5.46;85.48
31873;BME280;22407;42.820;23.374;2024-02-23T05:43:21;95439.00;;;5.81;83.04
31873;BME280;22407;42.820;23.374;2024-02-23T05:45:47;95442.75;;;5.80;82.91
31873;BME280;22407;42.820;23.374;2024-02-23T05:48:13;95443.81;;;5.45;82.35
31873;BME280;22407;42.820;23.374;2024-02-23T05:50:39;95452.59;;;5.22;83.33
31873;BME280;22407;42.820;23.374;2024-02-23T05:53:04;95451.81;;;5.12;85.53
31873;BME280;22407;42.820;23.374;2024-02-23T05:55:30;95459.44;;;4.95;85.94
31873;BME280;22407;42.820;23.374;2024-02-23T05:57:55;95459.94;;;5.02;86.18
31873;BME280;22407;42.820;23.374;2024-02-23T06:00:21;95452.78;;;4.88;86.34
31873;BME280;22407;42.820;23.374;2024-02-23T06:02:47;95466.41;;;4.96;86.27
31873;BME280;22407;42.820;23.374;2024-02-23T06:05:13;95464.66;;;5.20;85.39
31873;BME280;22407;42.820;23.374;2024-02-23T06:07:38;95465.66;;;5.34;85.10
31873;BME280;22407;42.820;23.374;2024-02-23T06:10:04;95461.41;;;5.28;84.84
31873;BME280;22407;42.820;23.374;2024-02-23T06:12:30;95465.41;;;5.69;83.25
31873;BME280;22407;42.820;23.374;2024-02-23T06:14:56;95466.50;;;5.68;83.48
31873;BME280;22407;42.820;23.374;2024-02-23T06:17:23;95477.38;;;6.14;79.87
31873;BME280;22407;42.820;23.374;2024-02-23T06:19:49;95470.88;;;6.20;80.00
31873;BME280;22407;42.820;23.374;2024-02-23T06:22:14;95475.97;;;6.22;79.16
31873;BME280;22407;42.820;23.374;2024-02-23T06:24:42;95476.00;;;6.45;78.99
31873;BME280;22407;42.820;23.374;2024-02-23T06:27:08;95473.38;;;6.64;78.69
31873;BME280;22407;42.820;23.374;2024-02-23T06:29:34;95471.25;;;6.84;77.78
31873;BME280;22407;42.820;23.374;2024-02-23T06:31:59;95476.09;;;6.82;76.33
31873;BME280;22407;42.820;23.374;2024-02-23T06:34:27;95463.56;;;6.96;76.24
31873;BME280;22407;42.820;23.374;2024-02-23T06:36:53;95471.69;;;7.33;75.13
31873;BME280;22407;42.820;23.374;2024-02-23T06:39:18;95474.13;;;7.66;74.41
31873;BME280;22407;42.820;23.374;2024-02-23T06:41:45;95488.75;;;7.97;72.68
31873;BME280;22407;42.820;23.374;2024-02-23T06:44:11;95482.13;;;7.89;72.52
31873;BME280;22407;42.820;23.374;2024-02-23T06:46:36;95480.91;;;7.64;72.94
31873;BME280;22407;42.820;23.374;2024-02-23T06:49:02;95479.19;;;8.04;69.91
31873;BME280;22407;42.820;23.374;2024-02-23T06:51:31;95480.25;;;7.90;71.67
31873;BME280;22407;42.820;23.374;2024-02-23T06:53:56;95485.88;;;8.25;70.16
31873;BME280;22407;42.820;23.374;2024-02-23T06:56:22;95492.16;;;8.21;70.18
31873;BME280;22407;42.820;23.374;2024-02-23T06:58:47;95493.94;;;8.57;68.78
31873;BME280;22407;42.820;23.374;2024-02-23T07:01:13;95493.41;;;8.42;69.46
31873;BME280;22407;42.820;23.374;2024-02-23T07:03:38;95493.63;;;8.45;69.32
31873;BME280;22407;42.820;23.374;2024-02-23T07:06:06;95492.38;;;8.24;70.24
31873;BME280;22407;42.820;23.374;2024-02-23T07:08:32;95491.00;;;8.53;69.68
31873;BME280;22407;42.820;23.374;2024-02-23T07:10:57;95485.88;;;8.70;68.56
31873;BME280;22407;42.820;23.374;2024-02-23T07:13:23;95494.22;;;8.69;68.39
31873;BME280;22407;42.820;23.374;2024-02-23T07:15:48;95489.66;;;9.23;68.24
31873;BME280;22407;42.820;23.374;2024-02-23T07:18:14;95498.50;;;9.50;66.72
31873;BME280;22407;42.820;23.374;2024-02-23T07:20:40;95484.66;;;9.17;66.67
31873;BME280;22407;42.820;23.374;2024-02-23T07:23:06;95484.34;;;9.67;65.77
31873;BME280;22407;42.820;23.374;2024-02-23T07:25:33;95500.28;;;10.04;63.04
31873;BME280;22407;42.820;23.374;2024-02-23T07:27:58;95486.41;;;10.19;63.04
31873;BME280;22407;42.820;23.374;2024-02-23T07:30:24;95484.53;;;10.27;62.11
31873;BME280;22407;42.820;23.374;2024-02-23T07:32:49;95488.41;;;10.57;60.67
31873;BME280;22407;42.820;23.374;2024-02-23T07:35:15;95483.41;;;10.81;60.90
31873;BME280;22407;42.820;23.374;2024-02-23T07:37:41;95482.75;;;11.14;59.85
31873;BME280;22407;42.820;23.374;2024-02-23T07:40:06;95482.50;;;11.32;59.72
31873;BME280;22407;42.820;23.374;2024-02-23T07:42:33;95474.28;;;11.54;57.61
31873;BME280;22407;42.820;23.374;2024-02-23T07:45:04;95488.00;;;11.58;57.40
31873;BME280;22407;42.820;23.374;2024-02-23T07:47:31;95486.56;;;11.60;56.85
31873;BME280;22407;42.820;23.374;2024-02-23T07:49:58;95493.63;;;11.95;55.77
31873;BME280;22407;42.820;23.374;2024-02-23T07:52:24;95483.88;;;12.28;55.97
31873;BME280;22407;42.820;23.374;2024-02-23T07:54:51;95486.25;;;12.38;55.60
31873;BME280;22407;42.820;23.374;2024-02-23T07:57:18;95481.41;;;12.69;55.70
31873;BME280;22407;42.820;23.374;2024-02-23T07:59:43;95475.47;;;12.75;53.83
31873;BME280;22407;42.820;23.374;2024-02-23T08:02:09;95483.13;;;12.73;55.02
31873;BME280;22407;42.820;23.374;2024-02-23T08:04:34;95474.94;;;12.98;54.50
31873;BME280;22407;42.820;23.374;2024-02-23T08:07:00;95482.72;;;13.08;53.05
31873;BME280;22407;42.820;23.374;2024-02-23T08:09:25;95485.06;;;12.81;53.69
31873;BME280;22407;42.820;23.374;2024-02-23T08:11:51;95477.91;;;13.14;51.94
31873;BME280;22407;42.820;23.374;2024-02-23T08:14:17;95470.75;;;13.09;51.89
31873;BME280;22407;42.820;23.374;2024-02-23T08:16:42;95488.84;;;13.63;53.03
31873;BME280;22407;42.820;23.374;2024-02-23T08:19:08;95492.84;;;13.37;52.70
31873;BME280;22407;42.820;23.374;2024-02-23T08:21:33;95491.66;;;13.75;51.96
31873;BME280;22407;42.820;23.374;2024-02-23T08:23:59;95489.03;;;13.87;51.36
31873;BME280;22407;42.820;23.374;2024-02-23T08:26:24;95494.47;;;13.87;49.11
31873;BME280;22407;42.820;23.374;2024-02-23T08:28:50;95486.75;;;13.40;51.05
31873;BME280;22407;42.820;23.374;2024-02-23T08:31:15;95493.72;;;13.78;49.48
31873;BME280;22407;42.820;23.374;2024-02-23T08:33:42;95486.84;;;14.42;48.50
31873;BME280;22407;42.820;23.374;2024-02-23T08:36:07;95487.66;;;14.42;47.67
31873;BME280;22407;42.820;23.374;2024-02-23T08:38:33;95483.50;;;13.75;46.88
31873;BME280;22407;42.820;23.374;2024-02-23T08:40:58;95483.31;;;13.80;47.78
31873;BME280;22407;42.820;23.374;2024-02-23T08:43:24;95486.72;;;14.38;48.57
31873;BME280;22407;42.820;23.374;2024-02-23T08:45:50;95491.25;;;14.14;46.11
31873;BME280;22407;42.820;23.374;2024-02-23T08:48:16;95488.47;;;14.87;44.58
31873;BME280;22407;42.820;23.374;2024-02-23T08:50:42;95488.13;;;14.88;44.95
31873;BME280;22407;42.820;23.374;2024-02-23T08:53:07;95492.28;;;14.42;45.09
31873;BME280;22407;42.820;23.374;2024-02-23T08:55:33;95478.84;;;15.01;46.06
31873;BME280;22407;42.820;23.374;2024-02-23T08:57:58;95490.16;;;14.79;43.07
31873;BME280;22407;42.820;23.374;2024-02-23T09:00:24;95483.69;;;14.72;44.94
31873;BME280;22407;42.820;23.374;2024-02-23T09:02:49;95491.84;;;15.28;45.67
31873;BME280;22407;42.820;23.374;2024-02-23T09:05:15;95497.56;;;15.71;42.95
31873;BME280;22407;42.820;23.374;2024-02-23T09:07:41;95485.41;;;15.56;42.77
31873;BME280;22407;42.820;23.374;2024-02-23T09:10:06;95478.59;;;15.39;43.17
31873;BME280;22407;42.820;23.374;2024-02-23T09:12:32;95485.53;;;15.36;42.40
31873;BME280;22407;42.820;23.374;2024-02-23T09:14:58;95481.06;;;15.44;42.66
31873;BME280;22407;42.820;23.374;2024-02-23T09:17:23;95494.81;;;15.83;42.88
31873;BME280;22407;42.820;23.374;2024-02-23T09:19:48;95487.84;;;15.14;42.37
31873;BME280;22407;42.820;23.374;2024-02-23T09:22:14;95476.22;;;15.37;42.58
31873;BME280;22407;42.820;23.374;2024-02-23T09:24:41;95488.16;;;15.00;43.23
31873;BME280;22407;42.820;23.374;2024-02-23T09:27:06;95481.66;;;14.93;44.20
31873;BME280;22407;42.820;23.374;2024-02-23T09:29:35;95470.81;;;15.17;44.74
31873;BME280;22407;42.820;23.374;2024-02-23T09:32:00;95466.66;;;15.67;42.24
31873;BME280;22407;42.820;23.374;2024-02-23T09:34:26;95483.34;;;16.29;42.53
31873;BME280;22407;42.820;23.374;2024-02-23T09:36:52;95481.31;;;16.26;42.24
31873;BME280;22407;42.820;23.374;2024-02-23T09:39:17;95462.22;;;16.14;41.85
31873;BME280;22407;42.820;23.374;2024-02-23T09:41:43;95472.06;;;15.79;41.54
31873;BME280;22407;42.820;23.374;2024-02-23T09:44:09;95474.72;;;15.52;42.66
31873;BME280;22407;42.820;23.374;2024-02-23T09:46:40;95472.06;;;15.91;41.97
31873;BME280;22407;42.820;23.374;2024-02-23T09:49:06;95467.66;;;16.26;40.66
31873;BME280;22407;42.820;23.374;2024-02-23T09:51:33;95465.84;;;15.43;41.95
31873;BME280;22407;42.820;23.374;2024-02-23T09:54:01;95465.50;;;15.32;43.32
31873;BME280;22407;42.820;23.374;2024-02-23T09:56:28;95458.31;;;15.87;41.87
31873;BME280;22407;42.820;23.374;2024-02-23T09:58:59;95458.22;;;15.48;42.96
31873;BME280;22407;42.820;23.374;2024-02-23T10:01:30;95454.66;;;15.24;41.06
31873;BME280;22407;42.820;23.374;2024-02-23T10:04:00;95458.44;;;15.79;42.10
31873;BME280;22407;42.820;23.374;2024-02-23T10:06:26;95441.84;;;15.48;40.36
31873;BME280;22407;42.820;23.374;2024-02-23T10:08:53;95448.78;;;15.57;40.70
31873;BME280;22407;42.820;23.374;2024-02-23T10:11:22;95456.97;;;16.21;39.60
31873;BME280;22407;42.820;23.374;2024-02-23T10:13:48;95452.56;;;15.65;40.05
31873;BME280;22407;42.820;23.374;2024-02-23T10:16:18;95455.75;;;15.43;41.77
31873;BME280;22407;42.820;23.374;2024-02-23T10:18:46;95452.06;;;15.15;42.11
31873;BME280;22407;42.820;23.374;2024-02-23T10:21:12;95453.16;;;14.90;42.38
31873;BME280;22407;42.820;23.374;2024-02-23T10:23:38;95447.63;;;14.55;42.59
31873;BME280;22407;42.820;23.374;2024-02-23T10:26:05;95449.03;;;14.72;43.94
31873;BME280;22407;42.820;23.374;2024-02-23T10:28:31;95446.50;;;15.00;42.63
31873;BME280;22407;42.820;23.374;2024-02-23T10:30:56;95441.53;;;14.69;42.37
31873;BME280;22407;42.820;23.374;2024-02-23T10:33:22;95448.69;;;14.74;42.79
31873;BME280;22407;42.820;23.374;2024-02-23T10:35:55;95445.81;;;14.59;43.40
31873;BME280;22407;42.820;23.374;2024-02-23T10:38:22;95432.22;;;14.70;42.73
31873;BME280;22407;42.820;23.374;2024-02-23T10:40:50;95422.22;;;14.63;43.28
31873;BME280;22407;42.820;23.374;2024-02-23T10:43:19;95424.72;;;14.67;43.22
31873;BME280;22407;42.820;23.374;2024-02-23T10:45:46;95419.78;;;14.93;41.59
31873;BME280;22407;42.820;23.374;2024-02-23T10:48:12;95412.28;;;14.90;42.02
31873;BME280;22407;42.820;23.374;2024-02-23T10:50:40;95413.06;;;15.03;42.67
31873;BME280;22407;42.820;23.374;2024-02-23T10:53:07;95402.88;;;15.12;41.42
31873;BME280;22407;42.820;23.374;2024-02-23T10:55:37;95411.94;;;15.75;40.62
31873;BME280;22407;42.820;23.374;2024-02-23T10:58:09;95407.75;;;15.66;39.84
31873;BME280;22407;42.820;23.374;2024-02-23T11:00:37;95409.91;;;15.13;40.56
31873;BME280;22407;42.820;23.374;2024-02-23T11:03:04;95396.56;;;15.83;40.47
31873;BME280;22407;42.820;23.374;2024-02-23T11:05:32;95393.09;;;16.25;39.41
31873;BME280;22407;42.820;23.374;2024-02-23T11:07:58;95386.06;;;16.24;39.96
31873;BME280;22407;42.820;23.374;2024-02-23T11:10:24;95385.44;;;16.03;39.47
31873;BME280;22407;42.820;23.374;2024-02-23T11:13:00;95381.63;;;16.32;39.32
31873;BME280;22407;42.820;23.374;2024-02-23T11:15:29;95357.72;;;16.71;37.43
31873;BME280;22407;42.820;23.374;2024-02-23T11:17:56;95379.06;;;16.97;37.77
31873;BME280;22407;42.820;23.374;2024-02-23T11:20:21;95373.47;;;16.62;37.83
31873;BME280;22407;42.820;23.374;2024-02-23T11:22:53;95362.78;;;16.57;38.98
31873;BME280;22407;42.820;23.374;2024-02-23T11:25:19;95367.53;;;16.18;38.58
31873;BME280;22407;42.820;23.374;2024-02-23T11:27:49;95372.56;;;16.16;39.05
31873;BME280;22407;42.820;23.374;2024-02-23T11:30:17;95356.78;;;16.09;38.28
31873;BME280;22407;42.820;23.374;2024-02-23T11:32:47;95362.81;;;16.03;39.18
31873;BME280;22407;42.820;23.374;2024-02-23T11:35:15;95355.31;;;16.54;37.94
31873;BME280;22407;42.820;23.374;2024-02-23T11:38:07;95353.50;;;16.04;37.58
31873;BME280;22407;42.820;23.374;2024-02-23T11:40:33;95347.81;;;16.24;38.39
31873;BME280;22407;42.820;23.374;2024-02-23T11:42:59;95351.19;;;16.91;36.46
31873;BME280;22407;42.820;23.374;2024-02-23T11:45:30;95337.06;;;16.74;36.97
31873;BME280;22407;42.820;23.374;2024-02-23T11:47:56;95351.34;;;16.37;37.84
31873;BME280;22407;42.820;23.374;2024-02-23T11:50:21;95334.94;;;16.67;35.97
31873;BME280;22407;42.820;23.374;2024-02-23T11:52:47;95340.66;;;16.32;36.38
31873;BME280;22407;42.820;23.374;2024-02-23T11:55:18;95337.25;;;16.23;36.98
31873;BME280;22407;42.820;23.374;2024-02-23T11:57:45;95328.66;;;16.09;37.89
31873;BME280;22407;42.820;23.374;2024-02-23T12:00:10;95338.28;;;16.18;37.88
31873;BME280;22407;42.820;23.374;2024-02-23T12:02:36;95327.97;;;15.57;38.36
31873;BME280;22407;42.820;23.374;2024-02-23T12:05:02;95336.19;;;15.72;38.37
31873;BME280;22407;42.820;23.374;2024-02-23T12:07:32;95320.84;;;16.35;38.42
31873;BME280;22407;42.820;23.374;2024-02-23T12:09:58;95309.19;;;16.68;36.54
31873;BME280;22407;42.820;23.374;2024-02-23T12:12:27;95320.94;;;16.69;36.89
31873;BME280;22407;42.820;23.374;2024-02-23T12:14:53;95317.03;;;17.16;35.60
31873;BME280;22407;42.820;23.374;2024-02-23T12:17:18;95326.56;;;16.91;35.79
31873;BME280;22407;42.820;23.374;2024-02-23T12:19:44;95324.50;;;16.27;37.02
31873;BME280;22407;42.820;23.374;2024-02-23T12:22:10;95323.19;;;16.09;37.48
31873;BME280;22407;42.820;23.374;2024-02-23T12:24:36;95309.38;;;16.44;37.16
31873;BME280;22407;42.820;23.374;2024-02-23T12:27:02;95315.03;;;16.24;36.93
31873;BME280;22407;42.820;23.374;2024-02-23T12:29:28;95315.00;;;16.09;37.70
31873;BME280;22407;42.820;23.374;2024-02-23T12:32:06;95308.72;;;15.93;37.89
31873;BME280;22407;42.820;23.374;2024-02-23T12:34:32;95303.03;;;16.13;37.31
31873;BME280;22407;42.820;23.374;2024-02-23T12:36:58;95280.88;;;16.15;36.93
31873;BME280;22407;42.820;23.374;2024-02-23T12:39:24;95295.91;;;16.67;37.69
31873;BME280;22407;42.820;23.374;2024-02-23T12:41:50;95294.16;;;16.59;35.73
31873;BME280;22407;42.820;23.374;2024-02-23T12:44:16;95303.66;;;16.80;35.93
31873;BME280;22407;42.820;23.374;2024-02-23T12:46:41;95308.59;;;16.75;35.94
31873;BME280;22407;42.820;23.374;2024-02-23T12:49:07;95294.53;;;17.07;35.71